Time;durP1;ratioP1;P1;durP2;ratioP2;P2;SDS_P1;SDS_P2;PMS_P1;PMS_P2;Temp;Humidity;BMP_temperature;BMP_pressure;BME280_temperature;BME280_humidity;BME280_pressure;Samples;Min_cycle;Max_cycle;Signal;HPM_P1;HPM_P2
2022/09/12 00:00:26;;;;;;;6.63;3.73;;;;;;;16.48;71.48;99765.92;124819;1098;104198;-79
2022/09/12 00:03:17;;;;;;;8.10;4.40;;;;;;;16.47;71.15;99765.92;124804;1098;104176;-80
2022/09/12 00:05:49;;;;;;;7.50;4.20;;;;;;;16.43;71.72;99759.77;125722;1098;104208;-79
2022/09/12 00:08:20;;;;;;;5.93;3.93;;;;;;;16.42;71.99;99765.05;125631;1099;104201;-79
2022/09/12 00:10:52;;;;;;;7.20;3.70;;;;;;;16.45;71.91;99765.92;125655;1099;104277;-79
2022/09/12 00:13:23;;;;;;;10.93;3.70;;;;;;;16.48;71.51;99759.77;125659;1099;102768;-79
2022/09/12 00:15:54;;;;;;;7.97;3.83;;;;;;;16.49;71.48;99748.30;125667;1099;102749;-79
2022/09/12 00:18:25;;;;;;;7.50;3.80;;;;;;;16.49;72.09;99749.17;125676;1099;104326;-79
2022/09/12 00:20:56;;;;;;;6.80;3.90;;;;;;;16.49;71.76;99757.11;125600;1099;102233;-79
2022/09/12 00:23:27;;;;;;;10.67;3.93;;;;;;;16.50;72.07;99761.53;125701;1099;102843;-79
2022/09/12 00:25:59;;;;;;;7.10;3.60;;;;;;;16.50;71.83;99756.24;125667;1099;102280;-79
2022/09/12 00:28:30;;;;;;;6.50;3.70;;;;;;;16.50;71.89;99755.34;125656;1098;104172;-79
2022/09/12 00:31:03;;;;;;;5.90;3.80;;;;;;;16.51;71.85;99742.09;125590;1099;102981;-79
2022/09/12 00:33:35;;;;;;;7.75;3.80;;;;;;;16.53;72.48;99745.65;125648;1099;104066;-79
2022/09/12 00:36:09;;;;;;;5.27;3.67;;;;;;;16.56;72.35;99743.88;125649;1099;104262;-79
2022/09/12 00:38:40;;;;;;;;;;;;;;;16.57;71.86;99740.34;125646;1099;104287;-79
2022/09/12 00:41:17;;;;;;;6.80;3.80;;;;;;;16.62;72.17;99735.92;125682;1099;104162;-79
2022/09/12 00:43:50;;;;;;;7.10;4.10;;;;;;;16.65;72.50;99735.91;125707;1099;104169;-79
2022/09/12 00:46:35;;;;;;;5.67;4.03;;;;;;;16.66;72.72;99730.62;125661;1099;103218;-79
2022/09/12 00:49:21;;;;;;;6.17;4.17;;;;;;;16.67;72.41;99734.14;125634;1098;104159;-79
2022/09/12 00:51:58;;;;;;;6.60;4.10;;;;;;;16.65;72.32;99734.14;125726;1099;104168;-80
2022/09/12 00:54:34;;;;;;;5.83;4.00;;;;;;;16.62;72.75;99731.49;125144;1099;104271;-79
2022/09/12 00:57:09;;;;;;;4.90;3.67;;;;;;;16.63;72.64;99732.39;125772;1099;104201;-79
2022/09/12 00:59:45;;;;;;;7.90;3.80;;;;;;;16.60;72.48;99725.33;125660;1099;104325;-78
2022/09/12 01:02:16;;;;;;;7.23;3.63;;;;;;;16.64;73.16;99727.09;125709;1098;104232;-79
2022/09/12 01:04:47;;;;;;;5.53;4.20;;;;;;;16.64;72.63;99721.80;125601;1099;104730;-79
2022/09/12 01:07:19;;;;;;;4.80;3.70;;;;;;;16.64;73.32;99720.90;126381;1099;104301;-78
2022/09/12 01:09:50;;;;;;;5.80;4.13;;;;;;;16.66;73.03;99720.02;125689;1099;104207;-79
2022/09/12 01:12:25;;;;;;;8.30;3.73;;;;;;;16.67;72.91;99718.25;125714;1099;102265;-79
2022/09/12 01:14:56;;;;;;;7.07;3.80;;;;;;;16.70;73.11;99721.80;125548;1099;104262;-79
2022/09/12 01:17:33;;;;;;;4.80;3.67;;;;;;;16.72;73.38;99729.73;125716;1099;102135;-79
2022/09/12 01:20:45;;;;;;;6.20;3.63;;;;;;;16.73;73.02;99731.48;124792;1099;104166;-79
2022/09/12 01:23:44;;;;;;;9.03;4.30;;;;;;;16.73;73.46;99731.48;125672;1099;104214;-79
2022/09/12 01:27:05;;;;;;;6.77;4.57;;;;;;;16.68;73.47;99735.91;125554;1099;102258;-80
2022/09/12 01:29:56;;;;;;;7.87;4.70;;;;;;;16.58;72.84;99726.20;125401;1099;104826;-79
2022/09/12 01:32:37;;;;;;;7.77;4.77;;;;;;;16.52;73.76;99737.70;124778;1099;104287;-79
2022/09/12 01:35:21;;;;;;;7.70;4.47;;;;;;;16.49;73.55;99738.58;124722;1099;104220;-79
2022/09/12 01:37:59;;;;;;;;;;;;;;;16.44;73.40;99728.86;125707;1099;102987;-80
2022/09/12 01:40:40;;;;;;;7.93;4.20;;;;;;;16.43;73.27;99737.70;125688;1099;104165;-79
2022/09/12 01:43:20;;;;;;;7.67;4.43;;;;;;;16.41;73.99;99735.06;125672;1099;104278;-79
2022/09/12 01:45:58;;;;;;;6.55;4.30;;;;;;;16.44;73.93;99735.06;125716;1099;102271;-79
2022/09/12 01:48:34;;;;;;;6.13;4.17;;;;;;;16.49;73.97;99732.41;125712;1098;104172;-79
2022/09/12 01:51:13;;;;;;;5.10;3.87;;;;;;;16.51;73.46;99733.28;124810;1099;104439;-80
2022/09/12 01:53:50;;;;;;;8.20;4.20;;;;;;;16.49;74.23;99738.58;124814;1099;104137;-80
2022/09/12 01:56:25;;;;;;;6.95;4.50;;;;;;;16.49;73.57;99741.23;124788;1099;104233;-79
2022/09/12 01:59:04;;;;;;;11.23;4.30;;;;;;;16.49;74.45;99743.88;125428;1099;102172;-79
2022/09/12 02:01:44;;;;;;;9.00;4.27;;;;;;;16.51;74.19;99742.09;125716;1099;104185;-79
2022/09/12 02:04:20;;;;;;;8.90;4.60;;;;;;;16.49;74.51;99738.58;125564;1099;104371;-79
2022/09/12 02:06:56;;;;;;;9.67;4.83;;;;;;;16.46;74.41;99745.65;125685;1098;102746;-79
2022/09/12 02:09:35;;;;;;;6.80;4.20;;;;;;;16.46;73.86;99741.23;125656;1099;104166;-80
2022/09/12 02:12:12;;;;;;;6.97;4.30;;;;;;;16.47;74.65;99735.06;125574;1099;111352;-79
2022/09/12 02:14:46;;;;;;;8.47;4.30;;;;;;;16.44;74.42;99740.36;125457;1099;102314;-79
2022/09/12 02:17:23;;;;;;;7.20;4.30;;;;;;;16.43;74.94;99743.88;124799;1098;104179;-80
2022/09/12 02:19:59;;;;;;;9.97;4.40;;;;;;;16.38;74.42;99743.00;125641;1099;104066;-79
2022/09/12 02:22:31;;;;;;;10.57;4.27;;;;;;;16.35;74.45;99748.30;125735;1099;102418;-79
2022/09/12 02:25:06;;;;;;;6.70;3.97;;;;;;;16.31;74.98;99744.78;125637;1099;102768;-79
2022/09/12 02:27:41;;;;;;;5.73;4.10;;;;;;;16.27;74.22;99739.48;125635;1099;103559;-79
2022/09/12 02:30:15;;;;;;;9.77;4.40;;;;;;;16.23;74.23;99745.64;125657;1099;104696;-79
2022/09/12 02:32:57;;;;;;;7.20;4.20;;;;;;;16.16;74.82;99745.64;125706;1099;104165;-79
2022/09/12 02:35:35;;;;;;;8.27;3.80;;;;;;;16.13;74.87;99745.63;125763;1099;102769;-79
2022/09/12 02:38:10;;;;;;;10.57;4.47;;;;;;;16.11;75.19;99743.86;125777;1099;104442;-79
2022/09/12 02:40:41;;;;;;;10.33;4.53;;;;;;;16.08;75.60;99746.50;125721;1099;104265;-79
2022/09/12 02:43:12;;;;;;;7.23;4.10;;;;;;;16.04;75.28;99752.69;125607;1099;104224;-79
2022/09/12 02:45:44;;;;;;;6.60;4.37;;;;;;;16.01;75.40;99750.04;124794;1099;104146;-79
2022/09/12 02:48:19;;;;;;;13.73;5.33;;;;;;;15.98;75.61;99761.48;124854;1099;104722;-79
2022/09/12 02:50:50;;;;;;;6.10;4.00;;;;;;;15.94;75.27;99751.77;124961;1099;104213;-79
2022/09/12 02:53:22;;;;;;;9.77;4.63;;;;;;;15.92;76.17;99753.54;125668;1099;104242;-79
2022/09/12 02:55:53;;;;;;;7.73;4.60;;;;;;;15.90;76.27;99758.83;125713;1099;104211;-79
2022/09/12 02:58:29;;;;;;;7.47;4.43;;;;;;;15.87;75.53;99757.95;125682;1099;104198;-79
2022/09/12 03:01:08;;;;;;;7.73;4.30;;;;;;;15.86;75.66;99750.88;125714;1099;104203;-79
2022/09/12 03:04:08;;;;;;;6.20;4.50;;;;;;;15.86;75.76;99750.88;124769;1099;104367;-79
2022/09/12 03:06:50;;;;;;;6.80;4.53;;;;;;;15.86;76.16;99746.45;125654;1099;104159;-79
2022/09/12 03:09:34;;;;;;;7.87;4.60;;;;;;;15.89;75.96;99745.59;125772;1099;104198;-78
2022/09/12 03:12:10;;;;;;;;;;;;;;;15.89;75.92;99749.11;125645;1099;104169;-79
2022/09/12 03:15:06;;;;;;;8.07;4.07;;;;;;;15.90;76.19;99755.31;125726;1099;104205;-79
2022/09/12 03:17:51;;;;;;;7.23;4.40;;;;;;;15.93;77.19;99755.31;125707;1097;104329;-79
2022/09/12 03:20:33;;;;;;;8.10;4.60;;;;;;;15.91;76.69;99749.11;125769;1099;103321;-79
2022/09/12 03:23:11;;;;;;;8.50;4.70;;;;;;;15.90;77.09;99758.83;125666;1098;102246;-78
2022/09/12 03:25:49;;;;;;;7.63;4.20;;;;;;;15.92;77.29;99761.47;125654;1098;104200;-79
2022/09/12 03:28:22;;;;;;;8.87;4.57;;;;;;;15.90;76.73;99766.77;125652;1099;104274;-79
2022/09/12 03:30:55;;;;;;;10.80;4.90;;;;;;;15.89;77.09;99767.63;125714;1099;104267;-79
2022/09/12 03:33:27;;;;;;;9.63;5.10;;;;;;;15.84;76.67;99766.75;125618;1099;104172;-78
2022/09/12 03:35:58;;;;;;;8.40;4.97;;;;;;;15.84;76.89;99768.52;125688;1099;104211;-79
2022/09/12 03:38:29;;;;;;;7.07;4.60;;;;;;;15.80;77.36;99767.64;125698;1099;104163;-79
2022/09/12 03:41:00;;;;;;;9.83;4.50;;;;;;;15.78;77.32;99766.73;125710;1099;104191;-79
2022/09/12 03:43:31;;;;;;;8.23;4.87;;;;;;;15.75;77.32;99772.88;125644;1098;102190;-79
2022/09/12 03:46:02;;;;;;;6.37;4.27;;;;;;;15.75;76.92;99772.88;125797;1099;104651;-79
2022/09/12 03:48:34;;;;;;;8.63;4.60;;;;;;;15.74;77.11;99776.39;125585;1099;104630;-79
2022/09/12 03:51:07;;;;;;;10.20;4.57;;;;;;;15.76;77.78;99776.40;125735;1098;102079;-80
2022/09/12 03:53:39;;;;;;;12.18;4.33;;;;;;;15.76;78.02;99777.27;125695;1099;102214;-78
2022/09/12 03:56:11;;;;;;;6.00;4.13;;;;;;;15.74;78.06;99789.62;125703;1099;102114;-79
2022/09/12 03:58:43;;;;;;;5.30;4.20;;;;;;;15.74;78.60;99786.97;125741;1098;104178;-79
2022/09/12 04:01:16;;;;;;;8.17;4.50;;;;;;;15.76;77.59;99786.98;125752;1097;104259;-79
2022/09/12 04:03:50;;;;;;;8.50;4.33;;;;;;;15.76;78.61;99786.98;125699;1099;103063;-79
2022/09/12 04:06:23;;;;;;;10.20;4.58;;;;;;;15.76;78.50;99790.50;125726;1098;104275;-79
2022/09/12 04:08:55;;;;;;;6.77;4.30;;;;;;;15.77;78.10;99788.79;125736;1099;104191;-79
2022/09/12 04:11:26;;;;;;;8.03;4.30;;;;;;;15.76;79.14;99795.78;125712;1099;104265;-80
2022/09/12 04:13:57;;;;;;;7.83;4.53;;;;;;;15.77;78.73;99792.30;125674;1098;104318;-79
2022/09/12 04:16:29;;;;;;;7.33;4.77;;;;;;;15.77;78.17;99792.30;125637;1099;104430;-79
2022/09/12 04:19:00;;;;;;;8.67;4.50;;;;;;;15.80;78.95;99792.31;125630;1099;104226;-80
2022/09/12 04:21:31;;;;;;;8.90;4.50;;;;;;;15.81;78.63;99790.55;125749;1099;102740;-80
2022/09/12 04:24:03;;;;;;;6.10;4.40;;;;;;;15.80;79.49;99794.96;125708;1099;104262;-79
2022/09/12 04:26:34;;;;;;;10.43;4.47;;;;;;;15.81;78.85;99798.48;124846;1099;104297;-79
2022/09/12 04:29:06;;;;;;;8.50;4.40;;;;;;;15.80;78.62;99794.96;125629;1099;102749;-80
2022/09/12 04:31:37;;;;;;;7.87;4.10;;;;;;;15.83;78.50;99806.42;125705;1099;104159;-79
2022/09/12 04:34:08;;;;;;;7.83;4.20;;;;;;;15.85;79.41;99802.01;125684;1099;102797;-80
2022/09/12 04:36:42;;;;;;;10.57;4.60;;;;;;;15.88;79.70;99799.38;125732;1099;104204;-80
2022/09/12 04:39:13;;;;;;;9.03;4.10;;;;;;;15.91;79.25;99800.29;125645;1099;104283;-80
2022/09/12 04:41:47;;;;;;;8.40;4.27;;;;;;;15.92;79.60;99799.39;125730;1099;102743;-79
2022/09/12 04:44:18;;;;;;;5.67;3.97;;;;;;;15.94;78.93;99802.03;125714;1098;104172;-80
2022/09/12 04:46:51;;;;;;;7.40;3.97;;;;;;;15.96;79.23;99802.95;125649;1099;104204;-80
2022/09/12 04:49:22;;;;;;;6.00;3.75;;;;;;;16.02;79.66;99797.67;125698;1099;102156;-80
2022/09/12 04:51:54;;;;;;;9.97;4.23;;;;;;;16.10;79.23;99806.50;125650;1099;104823;-80
2022/09/12 04:54:28;;;;;;;7.43;3.77;;;;;;;16.15;79.65;99806.51;125688;1099;104173;-80
2022/09/12 04:57:03;;;;;;;10.20;4.23;;;;;;;16.21;79.70;99814.46;125691;1098;104172;-80
2022/09/12 04:59:35;;;;;;;7.00;3.97;;;;;;;16.28;79.33;99815.34;125631;1099;104109;-80
2022/09/12 05:02:07;;;;;;;9.80;4.60;;;;;;;16.33;79.86;99816.23;125760;1099;102740;-79
2022/09/12 05:04:39;;;;;;;10.10;4.70;;;;;;;16.36;79.63;99813.58;125616;1099;102493;-79
2022/09/12 05:07:11;;;;;;;8.97;4.53;;;;;;;16.41;79.07;99813.59;125612;1099;104329;-80
2022/09/12 05:09:42;;;;;;;12.00;3.90;;;;;;;16.45;79.68;99816.23;125730;1099;102766;-78
2022/09/12 05:12:14;;;;;;;7.77;4.30;;;;;;;16.48;79.60;99818.89;124866;1099;102259;-78
2022/09/12 05:14:46;;;;;;;10.00;4.53;;;;;;;16.52;79.01;99811.86;124854;1099;104162;-78
2022/09/12 05:17:26;;;;;;;8.93;4.17;;;;;;;16.61;79.34;99816.25;124865;1099;102474;-77
2022/09/12 05:19:57;;;;;;;7.87;4.33;;;;;;;16.67;79.55;99819.80;124839;1099;102216;-79
2022/09/12 05:22:28;;;;;;;13.25;5.00;;;;;;;16.75;79.01;99816.25;124828;1098;104182;-78
2022/09/12 05:25:00;;;;;;;14.40;4.77;;;;;;;16.77;79.79;99823.33;124715;1099;104160;-78
2022/09/12 05:27:34;;;;;;;7.57;4.87;;;;;;;16.80;79.04;99825.97;124403;1099;102298;-78
2022/09/12 05:30:08;;;;;;;6.70;4.65;;;;;;;16.83;79.92;99823.33;124343;1099;103383;-77
2022/09/12 05:32:39;;;;;;;7.50;4.10;;;;;;;16.78;79.20;99821.55;124317;1099;104193;-77
2022/09/12 05:35:11;;;;;;;12.67;4.60;;;;;;;16.82;79.65;99824.20;124800;1099;104192;-77
2022/09/12 05:37:45;;;;;;;12.23;4.33;;;;;;;16.85;78.86;99826.84;124702;1099;102204;-77
2022/09/12 05:40:18;;;;;;;9.83;4.30;;;;;;;16.89;79.53;99822.45;124838;1099;104195;-77
2022/09/12 05:42:49;;;;;;;13.77;4.90;;;;;;;16.88;79.05;99826.88;124749;1099;102797;-78
2022/09/12 05:45:21;;;;;;;10.80;4.30;;;;;;;16.90;79.15;99824.22;124771;1099;104182;-77
2022/09/12 05:47:53;;;;;;;12.70;4.30;;;;;;;16.94;78.60;99823.34;124822;1099;102190;-77
2022/09/12 05:50:24;;;;;;;13.63;4.70;;;;;;;16.99;79.12;99821.56;124779;1099;102945;-79
2022/09/12 05:56:25;;;;;;;11.33;4.27;;;;;;;17.19;78.78;99821.53;124940;1099;102645;-78
2022/09/12 05:58:59;;;;;;;5.63;4.07;;;;;;;17.31;78.25;99822.38;125568;1099;104178;-77
2022/09/12 06:01:34;;;;;;;8.20;4.20;;;;;;;17.39;78.27;99813.53;125630;1099;104259;-77
2022/09/12 06:04:07;;;;;;;8.70;4.20;;;;;;;17.45;77.80;99825.87;124791;1099;104650;-78
2022/09/12 06:06:43;;;;;;;7.37;4.00;;;;;;;17.46;77.04;99830.30;124770;1099;104160;-78
2022/09/12 06:09:17;;;;;;;6.93;4.17;;;;;;;17.46;77.11;99829.42;125099;1099;104675;-78
2022/09/12 06:11:54;;;;;;;5.00;3.67;;;;;;;17.48;76.92;99822.34;125707;1099;104236;-79
2022/09/12 06:14:29;;;;;;;7.20;4.07;;;;;;;17.57;76.86;99822.30;125020;1102;104169;-79
2022/09/12 06:17:03;;;;;;;6.17;3.87;;;;;;;17.59;76.77;99816.12;125981;1099;104069;-79
2022/09/12 06:19:37;;;;;;;5.83;3.80;;;;;;;17.65;76.33;99823.15;125732;1099;104275;-79
2022/09/12 06:22:41;;;;;;;9.20;3.90;;;;;;;17.69;75.97;99830.22;126231;1099;104223;-79
2022/09/12 06:25:23;;;;;;;5.80;3.50;;;;;;;17.70;74.89;99826.69;125645;1099;102775;-79
2022/09/12 06:28:00;;;;;;;7.90;3.23;;;;;;;17.74;74.56;99825.77;125194;1099;102781;-79
2022/09/12 06:30:41;;;;;;;5.90;2.95;;;;;;;17.83;72.99;99827.50;125691;1099;101922;-81
2022/09/12 06:33:18;;;;;;;7.80;3.03;;;;;;;17.90;72.95;99817.77;125138;1099;104239;-78
2022/09/12 06:36:05;;;;;;;6.60;3.00;;;;;;;17.93;70.87;99823.06;125102;1099;105007;-78
2022/09/12 06:38:47;;;;;;;7.23;3.03;;;;;;;18.03;71.27;99816.83;125507;1099;108071;-78
2022/09/12 06:41:20;;;;;;;8.17;2.90;;;;;;;18.15;70.33;99810.54;125723;1099;104319;-80
2022/09/12 06:43:56;;;;;;;6.33;3.00;;;;;;;18.29;70.60;99821.98;125671;1099;104290;-78
2022/09/12 06:46:29;;;;;;;5.17;3.02;;;;;;;18.36;69.00;99819.28;126126;1098;102458;-80
2022/09/12 06:49:19;;;;;;;7.58;2.72;;;;;;;18.42;67.87;99824.55;125158;1099;104706;-79
2022/09/12 06:52:05;;;;;;;6.30;2.92;;;;;;;18.44;67.29;99828.94;125721;1099;103277;-80
2022/09/12 06:54:41;;;;;;;6.20;3.00;;;;;;;18.44;65.98;99830.72;125700;1099;104267;-79
2022/09/12 06:57:19;;;;;;;11.07;3.00;;;;;;;18.39;66.43;99833.41;125756;1099;104198;-80
2022/09/12 07:00:11;;;;;;;6.00;2.83;;;;;;;18.33;65.36;99836.11;127323;1098;101758;-79
2022/09/12 07:03:00;;;;;;;6.20;3.00;;;;;;;18.33;64.76;99844.95;125680;1099;104260;-80
2022/09/12 07:05:53;;;;;;;6.50;3.10;;;;;;;18.30;64.63;99852.06;125721;1098;104169;-79
2022/09/12 07:08:30;;;;;;;9.70;3.00;;;;;;;18.22;64.45;99848.58;125786;1099;102280;-79
2022/09/12 07:11:21;;;;;;;6.37;3.37;;;;;;;18.21;64.81;99844.15;125663;1099;104315;-80
2022/09/12 07:14:00;;;;;;;6.33;3.37;;;;;;;18.11;64.18;99851.30;126534;1098;102124;-80
2022/09/12 07:16:39;;;;;;;7.13;3.50;;;;;;;18.08;64.65;99862.80;126533;1098;102768;-78
2022/09/12 07:19:16;;;;;;;4.90;3.17;;;;;;;17.92;64.16;99856.69;125651;1099;104227;-78
2022/09/12 07:22:04;;;;;;;8.60;3.60;;;;;;;17.90;64.02;99869.09;125664;1098;102272;-80
2022/09/12 07:24:56;;;;;;;7.33;3.47;;;;;;;17.86;63.82;99861.13;125722;1099;104363;-80
2022/09/12 07:27:33;;;;;;;7.97;4.07;;;;;;;17.92;63.76;99858.44;125900;1098;102217;-81
2022/09/12 07:30:36;;;;;;;8.70;3.90;;;;;;;18.10;63.79;99853.05;126097;1099;102345;-80
2022/09/12 07:33:14;;;;;;;8.18;3.83;;;;;;;18.33;63.41;99858.23;126072;1099;104162;-79
2022/09/12 07:35:50;;;;;;;9.40;4.17;;;;;;;18.53;62.43;99864.29;127261;1098;101682;-79
2022/09/12 07:38:42;;;;;;;10.83;4.23;;;;;;;18.69;61.08;99858.86;125770;1098;102528;-80
2022/09/12 07:41:40;;;;;;;9.97;4.40;;;;;;;18.83;61.84;99852.56;125701;1099;104165;-78
2022/09/12 07:44:16;;;;;;;11.83;4.73;;;;;;;19.04;62.23;99847.09;125773;1098;104293;-79
2022/09/12 07:46:51;;;;;;;12.53;4.70;;;;;;;19.07;61.00;99847.95;125214;1099;104204;-79
2022/09/12 07:49:34;;;;;;;13.53;5.20;;;;;;;19.03;60.68;99863.92;125574;1099;104157;-79
2022/09/12 07:52:13;;;;;;;10.13;4.17;;;;;;;19.00;60.21;99850.66;125672;1099;102220;-80
2022/09/12 07:54:44;;;;;;;;;;;;;;;19.02;59.52;99848.86;125756;1099;102232;-80
2022/09/12 07:57:20;;;;;;;11.10;4.13;;;;;;;19.14;60.84;99836.36;126585;1097;102458;-81
2022/09/12 08:00:00;;;;;;;12.17;4.53;;;;;;;19.16;60.38;99847.86;125157;1099;102597;-80
2022/09/12 08:02:34;;;;;;;11.40;4.50;;;;;;;19.07;59.84;99846.16;125749;1099;104162;-79
2022/09/12 08:05:11;;;;;;;9.27;4.67;;;;;;;18.97;59.25;99837.39;125857;1099;102353;-80
2022/09/12 08:07:44;;;;;;;6.53;3.97;;;;;;;18.98;58.29;99848.90;125705;1099;104191;-80
2022/09/12 08:10:21;;;;;;;7.53;4.23;;;;;;;19.00;58.69;99842.69;125760;1099;102788;-80
2022/09/12 08:13:09;;;;;;;6.97;3.80;;;;;;;19.12;58.72;99848.77;126294;1099;102543;-79
2022/09/12 08:15:42;;;;;;;9.57;3.93;;;;;;;19.20;58.48;99849.60;125774;1099;104219;-79
2022/09/12 08:18:15;;;;;;;8.18;3.62;;;;;;;19.19;56.52;99846.04;125736;1099;104268;-79
2022/09/12 08:20:58;;;;;;;10.33;3.97;;;;;;;19.18;56.07;99859.35;125705;1098;104169;-79
2022/09/12 08:23:35;;;;;;;6.43;3.30;;;;;;;19.08;54.68;99863.02;125801;1098;102794;-79
2022/09/12 08:26:10;;;;;;;8.90;3.50;;;;;;;18.98;55.26;99864.84;125179;1099;104156;-81
2022/09/12 08:28:48;;;;;;;5.17;3.43;;;;;;;18.94;56.42;99861.34;125717;1099;102256;-81
2022/09/12 08:31:27;;;;;;;9.23;4.10;;;;;;;18.95;55.27;99862.25;125640;1098;104209;-80
2022/09/12 08:34:02;;;;;;;9.73;3.70;;;;;;;18.92;55.56;99855.17;125494;1099;102173;-80
2022/09/12 08:36:37;;;;;;;9.93;3.70;;;;;;;18.91;56.37;99858.72;126456;1098;105029;-80
2022/09/12 08:39:26;;;;;;;9.40;4.00;;;;;;;19.01;55.72;99867.48;125690;1099;102162;-80
2022/09/12 08:42:39;;;;;;;8.97;4.43;;;;;;;18.91;55.75;99856.05;125811;1099;104248;-82
2022/09/12 08:45:23;;;;;;;6.67;3.90;;;;;;;18.68;56.13;99854.45;125216;1099;104259;-81
2022/09/12 08:48:12;;;;;;;6.53;3.95;;;;;;;18.61;57.22;99857.17;125777;1099;104265;-81
2022/09/12 08:50:57;;;;;;;6.87;4.10;;;;;;;18.50;56.83;99865.21;125772;1099;102366;-82
2022/09/12 08:54:03;;;;;;;8.23;4.13;;;;;;;18.37;57.22;99864.42;125730;1097;104166;-81
2022/09/12 08:56:41;;;;;;;8.05;4.08;;;;;;;18.27;57.21;99863.57;125755;1099;104297;-80
2022/09/12 08:59:19;;;;;;;12.63;4.53;;;;;;;18.16;56.77;99856.58;125726;1099;101840;-81
2022/09/12 09:02:03;;;;;;;6.83;4.33;;;;;;;18.17;57.22;99855.66;125653;1099;102736;-80
2022/09/12 09:04:52;;;;;;;11.13;4.37;;;;;;;18.23;57.38;99860.94;125634;1099;104163;-80
2022/09/12 09:07:49;;;;;;;10.63;4.70;;;;;;;18.31;57.28;99860.02;125993;1099;104377;-80
2022/09/12 09:10:30;;;;;;;10.27;4.70;;;;;;;18.37;57.27;99852.89;125718;1099;104160;-80
2022/09/12 09:16:20;;;;;;;7.33;3.63;;;;;;;18.50;57.21;99849.27;125741;1099;102181;-80
2022/09/12 09:18:58;;;;;;;10.47;4.23;;;;;;;18.74;57.26;99849.97;125699;1099;101909;-81
2022/09/12 09:21:52;;;;;;;4.43;2.90;;;;;;;18.81;56.42;99849.05;125644;1099;104358;-81
2022/09/12 09:24:37;;;;;;;3.33;2.60;;;;;;;18.86;56.23;99847.25;125747;1099;101882;-80
2022/09/12 09:27:26;;;;;;;5.73;2.47;;;;;;;18.97;56.24;99842.71;125674;1099;104213;-80
2022/09/12 09:32:59;;;;;;;4.40;2.63;;;;;;;19.22;55.90;99851.33;125380;1099;104201;-82
2022/09/12 09:35:43;;;;;;;2.37;1.93;;;;;;;19.28;54.53;99861.03;125649;1099;102034;-80
2022/09/12 09:38:37;;;;;;;3.33;2.00;;;;;;;19.18;53.30;99869.98;125704;1099;104230;-80
2022/09/12 09:41:27;;;;;;;4.17;2.00;;;;;;;19.15;54.00;99862.94;125587;1099;104338;-81
2022/09/12 09:44:05;;;;;;;2.67;1.90;;;;;;;19.17;54.31;99866.45;125640;1098;104184;-80
2022/09/12 09:46:44;;;;;;;2.23;2.00;;;;;;;19.10;53.74;99856.77;125703;1099;103184;-81
2022/09/12 09:49:25;;;;;;;4.20;2.03;;;;;;;19.02;53.28;99847.98;125715;1099;104188;-82
2022/09/12 09:52:01;;;;;;;2.43;1.80;;;;;;;19.13;54.26;99859.39;125725;1098;102125;-80
2022/09/12 09:54:39;;;;;;;2.47;1.73;;;;;;;19.15;53.66;99851.40;125104;1099;102333;-80
2022/09/12 09:57:43;;;;;;;3.40;2.00;;;;;;;19.11;54.08;99852.34;125151;1099;102544;-80
2022/09/12 10:00:41;;;;;;;1.70;1.60;;;;;;;19.08;52.51;99849.72;125710;1099;102762;-79
2022/09/12 10:03:34;;;;;;;2.63;1.53;;;;;;;19.21;53.45;99844.27;125482;1099;102304;-81
2022/09/12 10:06:26;;;;;;;5.43;1.73;;;;;;;19.40;53.28;99842.28;125674;1099;104172;-79
2022/09/12 10:09:17;;;;;;;2.03;1.90;;;;;;;19.54;52.86;99835.91;125718;1099;102263;-79
2022/09/12 10:12:20;;;;;;;6.40;2.40;;;;;;;19.65;52.00;99838.45;125458;1099;104638;-80
2022/09/12 10:15:20;;;;;;;3.03;2.00;;;;;;;19.61;50.78;99834.95;125771;1099;118462;-81
2022/09/12 10:18:34;;;;;;;2.60;2.00;;;;;;;19.60;50.88;99840.29;125678;1098;102842;-82
2022/09/12 10:21:26;;;;;;;2.60;1.97;;;;;;;19.50;51.10;99851.04;125695;1099;104166;-81
2022/09/12 10:24:24;;;;;;;4.43;1.90;;;;;;;19.52;50.38;99843.04;125754;1099;102790;-82
2022/09/12 10:27:23;;;;;;;3.40;2.20;;;;;;;19.67;50.78;99844.66;125748;1099;102009;-80
2022/09/12 10:30:04;;;;;;;3.23;2.10;;;;;;;19.72;51.13;99846.34;125290;1099;104232;-81
2022/09/12 10:32:46;;;;;;;6.97;2.23;;;;;;;19.81;50.76;99845.39;125775;1099;104169;-82
2022/09/12 10:35:24;;;;;;;3.00;2.13;;;;;;;19.81;50.49;99849.84;127045;1099;101775;-81
2022/09/12 10:38:04;;;;;;;6.00;2.40;;;;;;;19.91;51.01;99841.72;125737;1099;104265;-80
2022/09/12 10:40:46;;;;;;;5.30;2.50;;;;;;;20.03;50.44;99848.64;125808;1098;104171;-80
2022/09/12 10:43:36;;;;;;;5.90;2.57;;;;;;;20.02;49.77;99841.55;125723;1099;104230;-80
2022/09/12 10:46:33;;;;;;;5.23;2.57;;;;;;;20.02;49.50;99851.33;125521;1099;104395;-80
2022/09/12 10:49:36;;;;;;;4.23;2.33;;;;;;;19.95;49.56;99841.68;125519;1099;104268;-80
2022/09/12 10:52:53;;;;;;;5.00;2.57;;;;;;;19.86;50.34;99863.97;125732;1099;102185;-79
2022/09/12 10:55:36;;;;;;;8.17;3.27;;;;;;;19.93;50.58;99847.03;126423;1098;104322;-79
2022/09/12 10:58:39;;;;;;;4.90;3.00;;;;;;;20.11;50.38;99853.87;125223;1099;104316;-79
2022/09/12 11:01:25;;;;;;;9.53;3.00;;;;;;;20.33;50.53;99849.11;125800;1099;104147;-79
2022/09/12 11:04:18;;;;;;;3.57;2.60;;;;;;;20.43;49.18;99853.41;126392;1099;102772;-80
2022/09/12 11:07:11;;;;;;;7.23;2.40;;;;;;;20.32;50.02;99850.03;126572;1098;102543;-81
2022/09/12 11:10:00;;;;;;;6.00;2.80;;;;;;;20.20;49.71;99845.75;125754;1099;102730;-81
2022/09/12 11:12:53;;;;;;;3.20;2.90;;;;;;;20.05;49.71;99852.16;126590;1099;104147;-79
2022/09/12 11:15:43;;;;;;;4.55;2.92;;;;;;;19.86;49.20;99853.32;125359;1099;102275;-80
2022/09/12 11:18:42;;;;;;;4.40;2.60;;;;;;;19.69;49.90;99851.70;125794;1099;104261;-81
2022/09/12 11:21:32;;;;;;;4.50;3.20;;;;;;;19.57;49.65;99847.42;125795;1099;104200;-79
2022/09/12 11:27:48;;;;;;;4.42;2.70;;;;;;;19.64;49.68;99856.20;126224;1098;102266;-80
2022/09/12 11:30:32;;;;;;;5.87;3.03;;;;;;;19.66;49.73;99854.39;125683;1099;104246;-81
2022/09/12 11:33:33;;;;;;;5.47;3.37;;;;;;;19.81;49.72;99855.16;126194;1098;102256;-78
2022/09/12 11:36:27;;;;;;;6.37;3.30;;;;;;;19.84;49.39;99848.02;125693;1099;105168;-79
2022/09/12 11:39:17;;;;;;;8.57;3.00;;;;;;;19.95;49.68;99857.66;125984;1098;104650;-80
2022/09/12 11:41:57;;;;;;;5.20;2.90;;;;;;;19.82;48.51;99838.27;125052;1099;103571;-81
2022/09/12 11:44:40;;;;;;;11.50;3.20;;;;;;;19.75;49.33;99835.66;125193;1099;104511;-79
2022/09/12 11:47:21;;;;;;;6.60;3.03;;;;;;;19.84;49.80;99841.81;126449;1098;104054;-80
2022/09/12 11:49:58;;;;;;;7.80;3.10;;;;;;;19.84;49.97;99848.02;125308;1099;103340;-80
2022/09/12 11:52:39;;;;;;;8.25;3.17;;;;;;;19.75;49.17;99856.95;126418;1099;102352;-80
2022/09/12 11:55:37;;;;;;;4.37;3.00;;;;;;;19.67;49.32;99853.51;126555;1098;101960;-79
2022/09/12 11:58:35;;;;;;;9.23;3.00;;;;;;;19.54;49.79;99862.52;126035;1099;102823;-79
2022/09/12 12:04:42;;;;;;;5.93;3.37;;;;;;;19.43;49.98;99870.65;126684;1098;104182;-80
2022/09/12 12:07:33;;;;;;;;;;;;;;;;;;;;;
2022/09/12 12:10:36;;;;;;;8.43;3.37;;;;;;;19.67;49.27;99850.84;125133;1102;102446;-79
2022/09/12 12:13:24;;;;;;;6.17;2.83;;;;;;;19.70;49.28;99861.45;125272;1102;102000;-78
2022/09/12 12:16:00;;;;;;;5.50;2.90;;;;;;;19.66;49.38;99864.17;125660;1098;103331;-79
2022/09/12 12:18:37;;;;;;;7.63;2.53;;;;;;;19.69;49.85;99858.81;125879;1099;102769;-78
2022/09/12 12:21:39;;;;;;;5.37;2.63;;;;;;;19.63;48.80;99848.23;125082;1099;102756;-78
2022/09/12 12:24:21;;;;;;;5.83;2.50;;;;;;;19.62;48.12;99868.66;125219;1099;103189;-78
2022/09/12 12:27:23;;;;;;;4.83;2.50;;;;;;;19.54;48.85;99873.16;126471;1098;102675;-79
2022/09/12 12:29:59;;;;;;;2.97;2.07;;;;;;;19.40;47.68;99879.53;126282;1098;102252;-79
2022/09/12 12:32:38;;;;;;;4.27;2.30;;;;;;;19.38;48.59;99867.13;125827;1098;104188;-78
2022/09/12 12:35:45;;;;;;;5.70;2.03;;;;;;;19.40;48.48;99873.34;126169;1098;104215;-78